Time;durP1;ratioP1;P1;durP2;ratioP2;P2;SDS_P1;SDS_P2;PMS_P1;PMS_P2;Temp;Humidity;BMP_temperature;BMP_pressure;BME280_temperature;BME280_humidity;BME280_pressure;Samples;Min_cycle;Max_cycle;Signal;HPM_P1;HPM_P2
2022/06/11 00:01:46;;;;;;;16.60;3.83;;;;;;;;;;4964254;28;20478;-73
2022/06/11 00:04:15;;;;;;;14.85;3.17;;;;;;;;;;4964075;28;20054;-73
2022/06/11 00:06:45;;;;;;;12.88;3.55;;;;;;;;;;4971309;28;20057;-73
2022/06/11 00:09:13;;;;;;;17.20;3.42;;;;;;;;;;4966655;28;20057;-73
2022/06/11 00:11:41;;;;;;;19.10;3.53;;;;;;;;;;4965881;28;20043;-73
2022/06/11 00:14:09;;;;;;;19.85;3.60;;;;;;;;;;4963266;28;20553;-73
2022/06/11 00:16:37;;;;;;;18.48;3.10;;;;;;;;;;4965565;28;20548;-73
2022/06/11 00:19:06;;;;;;;17.42;3.28;;;;;;;;;;4964856;28;20059;-73
2022/06/11 00:21:34;;;;;;;14.75;3.42;;;;;;;;;;4965631;28;20132;-73
2022/06/11 00:24:02;;;;;;;17.42;3.28;;;;;;;;;;4966064;28;20464;-73
2022/06/11 00:26:29;;;;;;;16.50;3.72;;;;;;;;;;4965535;28;20066;-73
2022/06/11 00:28:56;;;;;;;14.07;3.25;;;;;;;;;;4964928;28;20050;-73
2022/06/11 00:31:25;;;;;;;14.85;3.13;;;;;;;;;;4968869;28;20050;-73
2022/06/11 00:33:53;;;;;;;19.10;3.72;;;;;;;;;;4963314;28;20054;-73
2022/06/11 00:36:20;;;;;;;16.38;3.50;;;;;;;;;;4964981;28;20054;-73
2022/06/11 00:38:48;;;;;;;19.20;3.75;;;;;;;;;;4962392;28;20054;-73
2022/06/11 00:41:16;;;;;;;15.27;3.60;;;;;;;;;;4966507;28;20116;-73
2022/06/11 00:43:43;;;;;;;25.15;3.78;;;;;;;;;;4967071;28;20458;-73
2022/06/11 00:46:29;;;;;;;20.13;3.65;;;;;;;;;;4966589;28;20046;-73
2022/06/11 00:48:58;;;;;;;19.73;4.20;;;;;;;;;;4964740;28;20057;-73
2022/06/11 00:51:25;;;;;;;16.55;3.17;;;;;;;;;;4963722;28;20047;-73
2022/06/11 00:53:55;;;;;;;15.27;3.20;;;;;;;;;;4964227;28;20058;-73
2022/06/11 00:56:28;;;;;;;21.80;3.53;;;;;;;;;;4967065;28;20054;-73
2022/06/11 00:58:58;;;;;;;16.55;3.80;;;;;;;;;;4964745;28;20057;-73
2022/06/11 01:01:26;;;;;;;18.25;3.70;;;;;;;;;;4966103;28;20060;-72
2022/06/11 01:03:56;;;;;;;17.67;4.43;;;;;;;;;;4962797;28;20046;-72
2022/06/11 01:06:29;;;;;;;18.45;3.78;;;;;;;;;;4961871;28;20066;-72
2022/06/11 01:09:00;;;;;;;16.63;3.35;;;;;;;;;;4965177;28;20039;-72
2022/06/11 01:11:36;;;;;;;20.35;3.42;;;;;;;;;;4962741;28;20055;-72
2022/06/11 01:14:11;;;;;;;25.67;4.40;;;;;;;;;;4963432;28;20058;-72
2022/06/11 01:16:41;;;;;;;23.45;4.20;;;;;;;;;;4962774;28;20101;-72
2022/06/11 01:19:16;;;;;;;17.55;3.05;;;;;;;;;;4965991;28;20516;-72
2022/06/11 01:21:55;;;;;;;22.98;4.05;;;;;;;;;;4964849;28;20069;-72
2022/06/11 01:24:29;;;;;;;17.08;3.30;;;;;;;;;;4965382;28;20090;-72
2022/06/11 01:27:14;;;;;;;22.52;3.67;;;;;;;;;;4961729;28;20066;-72
2022/06/11 01:29:47;;;;;;;18.83;3.47;;;;;;;;;;4963787;28;20061;-72
2022/06/11 01:32:17;;;;;;;15.38;2.97;;;;;;;;;;4963148;28;20050;-72
2022/06/11 01:34:49;;;;;;;16.83;3.67;;;;;;;;;;4961938;28;20109;-72
2022/06/11 01:37:19;;;;;;;22.42;3.30;;;;;;;;;;4968528;28;20058;-72
2022/06/11 01:39:49;;;;;;;18.85;3.17;;;;;;;;;;4964604;28;20097;-72
2022/06/11 01:42:17;;;;;;;22.45;3.78;;;;;;;;;;4962437;28;20108;-72
2022/06/11 01:44:46;;;;;;;15.57;3.10;;;;;;;;;;4961654;28;20057;-72
2022/06/11 01:47:14;;;;;;;21.02;3.03;;;;;;;;;;4960032;28;20402;-72
2022/06/11 01:49:43;;;;;;;16.40;3.03;;;;;;;;;;4965347;28;20681;-72
2022/06/11 01:52:26;;;;;;;14.23;3.03;;;;;;;;;;4963186;28;20103;-72
2022/06/11 01:54:58;;;;;;;19.73;3.38;;;;;;;;;;4962592;28;20170;-72
2022/06/11 01:57:36;;;;;;;16.17;3.63;;;;;;;;;;4965214;28;20070;-72
2022/06/11 02:00:10;;;;;;;11.32;2.65;;;;;;;;;;4963991;28;20394;-72
2022/06/11 02:02:42;;;;;;;19.08;3.30;;;;;;;;;;4963622;28;20502;-72
2022/06/11 02:05:15;;;;;;;19.23;3.42;;;;;;;;;;4964045;28;20050;-72
2022/06/11 02:07:44;;;;;;;14.75;2.80;;;;;;;;;;4966198;28;20149;-72
2022/06/11 02:10:16;;;;;;;16.48;3.17;;;;;;;;;;4962684;28;20454;-72
2022/06/11 02:12:45;;;;;;;16.15;3.78;;;;;;;;;;4963720;28;20102;-72
2022/06/11 02:15:18;;;;;;;14.73;3.88;;;;;;;;;;4965045;28;21672;-72
2022/06/11 02:17:47;;;;;;;15.25;3.38;;;;;;;;;;4964421;28;20142;-72
2022/06/11 02:20:18;;;;;;;14.88;3.30;;;;;;;;;;4966119;28;20066;-72
2022/06/11 02:22:47;;;;;;;17.55;3.88;;;;;;;;;;4964605;28;20136;-72
2022/06/11 02:25:17;;;;;;;19.55;3.65;;;;;;;;;;4965191;28;20521;-72
2022/06/11 02:27:47;;;;;;;20.60;3.40;;;;;;;;;;4962407;28;20073;-72
2022/06/11 02:30:17;;;;;;;18.33;4.03;;;;;;;;;;4958941;28;20042;-72
2022/06/11 02:32:45;;;;;;;20.50;4.40;;;;;;;;;;4965346;28;20139;-72
2022/06/11 02:35:13;;;;;;;17.67;3.28;;;;;;;;;;4962977;28;20058;-72
2022/06/11 02:37:43;;;;;;;18.27;3.38;;;;;;;;;;4961515;28;20046;-72
2022/06/11 02:40:12;;;;;;;15.43;3.67;;;;;;;;;;4959419;28;20105;-72
2022/06/11 02:42:40;;;;;;;19.85;3.75;;;;;;;;;;4965511;28;20054;-72
2022/06/11 02:45:10;;;;;;;16.55;3.50;;;;;;;;;;4982088;28;20054;-72
2022/06/11 02:47:39;;;;;;;17.40;3.70;;;;;;;;;;4960278;28;20489;-72
2022/06/11 02:50:07;;;;;;;20.20;4.13;;;;;;;;;;4964547;28;20046;-72
2022/06/11 02:52:34;;;;;;;20.83;4.18;;;;;;;;;;4961356;28;20046;-72
2022/06/11 02:55:03;;;;;;;19.35;4.55;;;;;;;;;;4962765;28;20042;-72
2022/06/11 02:57:31;;;;;;;21.58;4.20;;;;;;;;;;4960323;28;20053;-72
2022/06/11 02:59:59;;;;;;;18.30;3.97;;;;;;;;;;4963373;28;20047;-72
2022/06/11 03:02:26;;;;;;;21.50;4.07;;;;;;;;;;4958115;28;20145;-72
2022/06/11 03:04:55;;;;;;;22.30;3.88;;;;;;;;;;4965730;28;20054;-72
2022/06/11 03:07:23;;;;;;;19.52;3.80;;;;;;;;;;4959044;28;20054;-72
2022/06/11 03:09:50;;;;;;;18.17;3.97;;;;;;;;;;4964296;28;20050;-72
2022/06/11 03:12:18;;;;;;;26.38;4.70;;;;;;;;;;4962482;28;20736;-72
2022/06/11 03:14:45;;;;;;;23.27;4.30;;;;;;;;;;4965016;28;20050;-72
2022/06/11 03:17:14;;;;;;;19.25;3.95;;;;;;;;;;4964895;28;20137;-72
2022/06/11 03:19:41;;;;;;;26.38;4.60;;;;;;;;;;4964534;28;20781;-72
2022/06/11 03:22:10;;;;;;;20.55;4.35;;;;;;;;;;4959721;28;20062;-72
2022/06/11 03:24:37;;;;;;;23.33;4.40;;;;;;;;;;4958863;28;20142;-72
2022/06/11 03:27:05;;;;;;;24.65;4.80;;;;;;;;;;4963699;28;20058;-72
2022/06/11 03:29:32;;;;;;;24.63;4.30;;;;;;;;;;4963119;28;20524;-72
2022/06/11 03:31:59;;;;;;;22.10;4.38;;;;;;;;;;4964100;28;20129;-72
2022/06/11 03:34:26;;;;;;;24.13;4.10;;;;;;;;;;4958628;28;20093;-72
2022/06/11 03:36:53;;;;;;;20.00;4.50;;;;;;;;;;4964779;28;20050;-72
2022/06/11 03:39:22;;;;;;;23.95;4.45;;;;;;;;;;4965856;28;20062;-72
2022/06/11 03:41:50;;;;;;;21.60;4.43;;;;;;;;;;4960156;28;20066;-72
2022/06/11 03:44:18;;;;;;;25.25;4.28;;;;;;;;;;4961003;28;22717;-72
2022/06/11 03:46:45;;;;;;;25.45;4.78;;;;;;;;;;4981208;28;20046;-72
2022/06/11 03:49:12;;;;;;;23.02;4.47;;;;;;;;;;4960112;28;20047;-72
2022/06/11 03:51:40;;;;;;;29.40;5.63;;;;;;;;;;4958806;28;20124;-72
2022/06/11 03:54:08;;;;;;;27.00;5.13;;;;;;;;;;4961253;28;20042;-72
2022/06/11 03:56:37;;;;;;;32.72;5.78;;;;;;;;;;4965876;28;20080;-72
2022/06/11 03:59:04;;;;;;;18.55;4.30;;;;;;;;;;4962134;28;20196;-72
2022/06/11 04:01:31;;;;;;;28.67;5.50;;;;;;;;;;4963754;28;20125;-72
2022/06/11 04:04:01;;;;;;;27.38;5.40;;;;;;;;;;4959967;28;20549;-72
2022/06/11 04:06:30;;;;;;;28.38;6.53;;;;;;;;;;4962734;28;20066;-72
2022/06/11 04:08:57;;;;;;;24.83;4.82;;;;;;;;;;4960204;28;20061;-72
2022/06/11 04:11:25;;;;;;;32.72;5.60;;;;;;;;;;4958636;28;20068;-72
2022/06/11 04:13:55;;;;;;;28.73;5.60;;;;;;;;;;4961975;28;20058;-72
2022/06/11 04:16:28;;;;;;;26.67;5.15;;;;;;;;;;4967069;28;20065;-72
2022/06/11 04:18:56;;;;;;;26.35;5.03;;;;;;;;;;4966506;28;20417;-72
2022/06/11 04:21:23;;;;;;;30.77;5.60;;;;;;;;;;4963968;28;20046;-72
2022/06/11 04:23:52;;;;;;;28.67;5.75;;;;;;;;;;4966025;28;20490;-72
2022/06/11 04:26:21;;;;;;;35.05;5.95;;;;;;;;;;4962613;28;20047;-72
2022/06/11 04:28:49;;;;;;;31.83;5.70;;;;;;;;;;4966650;28;20113;-72
2022/06/11 04:31:18;;;;;;;32.95;5.95;;;;;;;;;;4963558;28;20077;-72
2022/06/11 04:33:47;;;;;;;29.10;5.88;;;;;;;;;;4970202;28;20050;-72
2022/06/11 04:36:14;;;;;;;29.50;5.72;;;;;;;;;;4961952;28;20050;-72
2022/06/11 04:38:42;;;;;;;28.23;5.63;;;;;;;;;;4969071;28;20129;-72
2022/06/11 04:41:09;;;;;;;34.00;6.63;;;;;;;;;;4969696;28;20050;-72
2022/06/11 04:43:36;;;;;;;32.75;6.32;;;;;;;;;;4967326;28;20105;-72
2022/06/11 04:46:03;;;;;;;27.92;5.63;;;;;;;;;;4963888;28;20129;-72
2022/06/11 04:48:32;;;;;;;34.60;6.85;;;;;;;;;;4962110;28;20062;-72
2022/06/11 04:51:00;;;;;;;32.53;6.75;;;;;;;;;;4959163;28;20581;-72
2022/06/11 04:53:27;;;;;;;35.20;6.80;;;;;;;;;;4960479;28;20050;-72
2022/06/11 04:55:54;;;;;;;31.00;6.30;;;;;;;;;;4964524;28;20054;-72
2022/06/11 04:58:22;;;;;;;38.03;7.30;;;;;;;;;;4961861;28;20058;-72
2022/06/11 05:00:49;;;;;;;35.58;6.55;;;;;;;;;;4956952;28;20050;-72
2022/06/11 05:03:16;;;;;;;36.20;6.63;;;;;;;;;;4959196;28;20046;-72
2022/06/11 05:05:45;;;;;;;35.72;6.75;;;;;;;;;;4962105;28;20516;-72
2022/06/11 05:08:12;;;;;;;38.05;7.38;;;;;;;;;;4961276;28;20050;-71
2022/06/11 05:10:40;;;;;;;39.63;7.10;;;;;;;;;;4959655;28;20500;-72
2022/06/11 05:13:08;;;;;;;45.47;6.60;;;;;;;;;;4964170;28;20108;-72
2022/06/11 05:15:36;;;;;;;38.45;6.68;;;;;;;;;;4960857;28;20776;-72
2022/06/11 05:18:03;;;;;;;41.08;7.63;;;;;;;;;;4959900;28;20055;-72
2022/06/11 05:20:30;;;;;;;41.40;7.65;;;;;;;;;;4956626;28;20144;-72
2022/06/11 05:23:00;;;;;;;35.70;6.70;;;;;;;;;;4956674;28;20062;-71
2022/06/11 05:25:27;;;;;;;33.55;6.50;;;;;;;;;;4962241;28;20457;-71
2022/06/11 05:27:54;;;;;;;39.22;8.55;;;;;;;;;;4964412;28;20054;-73
2022/06/11 05:30:23;;;;;;;43.40;7.70;;;;;;;;;;4964403;28;20058;-72
2022/06/11 05:32:50;;;;;;;47.33;8.40;;;;;;;;;;4962386;28;20058;-72
2022/06/11 05:35:19;;;;;;;39.35;6.93;;;;;;;;;;4964909;28;20054;-72
2022/06/11 05:37:48;;;;;;;35.28;6.85;;;;;;;;;;4964779;28;20061;-72
2022/06/11 05:40:18;;;;;;;46.35;7.88;;;;;;;;;;4959081;28;20047;-72
2022/06/11 05:42:47;;;;;;;41.33;8.35;;;;;;;;;;4961591;28;20125;-72
2022/06/11 05:45:16;;;;;;;46.65;8.10;;;;;;;;;;4964510;28;20090;-73
2022/06/11 05:47:43;;;;;;;40.13;7.28;;;;;;;;;;4966254;28;20057;-73
2022/06/11 05:50:12;;;;;;;35.20;7.70;;;;;;;;;;4968006;28;20122;-73
2022/06/11 05:52:43;;;;;;;39.42;6.63;;;;;;;;;;4964866;28;20060;-73
2022/06/11 05:55:11;;;;;;;36.25;7.03;;;;;;;;;;4972464;28;20050;-72
2022/06/11 05:57:39;;;;;;;34.75;6.03;;;;;;;;;;4968741;28;20508;-72
2022/06/11 06:00:09;;;;;;;37.88;7.25;;;;;;;;;;4970608;28;20118;-73
2022/06/11 06:02:38;;;;;;;34.50;6.50;;;;;;;;;;4971138;28;20534;-73
2022/06/11 06:05:05;;;;;;;32.88;5.97;;;;;;;;;;4971998;28;20421;-73
2022/06/11 06:07:32;;;;;;;35.05;6.45;;;;;;;;;;4968347;28;20058;-72
2022/06/11 06:09:59;;;;;;;32.92;6.03;;;;;;;;;;4969813;28;20094;-72
2022/06/11 06:12:27;;;;;;;31.75;6.05;;;;;;;;;;4965218;28;21161;-72
2022/06/11 06:15:01;;;;;;;37.28;6.57;;;;;;;;;;4966239;28;20046;-72
2022/06/11 06:17:29;;;;;;;28.63;5.88;;;;;;;;;;4965071;28;20489;-72
2022/06/11 06:19:56;;;;;;;28.67;5.97;;;;;;;;;;4959796;28;20065;-72
2022/06/11 06:22:23;;;;;;;33.92;6.22;;;;;;;;;;4967793;28;20066;-72
2022/06/11 06:24:50;;;;;;;28.73;5.53;;;;;;;;;;4969797;28;20057;-72
2022/06/11 06:27:17;;;;;;;29.80;5.60;;;;;;;;;;4971902;28;20057;-72
2022/06/11 06:29:45;;;;;;;32.55;5.95;;;;;;;;;;4963501;28;20058;-73
2022/06/11 06:32:13;;;;;;;29.00;5.40;;;;;;;;;;4968024;28;20105;-73
2022/06/11 06:34:40;;;;;;;33.17;6.03;;;;;;;;;;4969554;28;20066;-73
2022/06/11 06:37:07;;;;;;;30.85;6.50;;;;;;;;;;4972388;28;20104;-73
2022/06/11 06:39:35;;;;;;;31.02;5.03;;;;;;;;;;4969715;28;20116;-73
2022/06/11 06:42:02;;;;;;;33.05;4.90;;;;;;;;;;4963770;28;20069;-72
2022/06/11 06:44:29;;;;;;;33.72;5.65;;;;;;;;;;4970418;28;20054;-72
2022/06/11 06:46:57;;;;;;;23.60;4.88;;;;;;;;;;4967214;28;20120;-72
2022/06/11 06:49:25;;;;;;;29.33;5.18;;;;;;;;;;4971143;28;20060;-72
2022/06/11 06:51:53;;;;;;;30.30;5.10;;;;;;;;;;4969545;28;20367;-73
2022/06/11 06:54:20;;;;;;;26.70;4.80;;;;;;;;;;4973972;28;20054;-72
2022/06/11 06:56:47;;;;;;;33.67;5.55;;;;;;;;;;4967634;28;20058;-72
2022/06/11 06:59:14;;;;;;;23.00;4.65;;;;;;;;;;4971658;28;20488;-72
2022/06/11 07:01:42;;;;;;;26.50;5.72;;;;;;;;;;4971898;28;20128;-72
2022/06/11 07:04:09;;;;;;;21.63;4.70;;;;;;;;;;4967115;28;20114;-72
2022/06/11 07:06:38;;;;;;;26.70;4.65;;;;;;;;;;4984656;28;20057;-72
2022/06/11 07:09:05;;;;;;;22.27;4.63;;;;;;;;;;4969823;28;20410;-72
2022/06/11 07:11:32;;;;;;;25.67;4.65;;;;;;;;;;4972994;28;20054;-72
2022/06/11 07:14:00;;;;;;;24.60;4.30;;;;;;;;;;4966706;28;20113;-72
2022/06/11 07:16:29;;;;;;;23.70;4.68;;;;;;;;;;4984990;28;20057;-72
2022/06/11 07:18:58;;;;;;;22.52;4.97;;;;;;;;;;4960702;28;20073;-72
2022/06/11 07:21:27;;;;;;;25.98;4.82;;;;;;;;;;4968283;28;20046;-73
2022/06/11 07:23:58;;;;;;;26.33;5.45;;;;;;;;;;4965959;28;20069;-72
2022/06/11 07:26:28;;;;;;;30.58;5.38;;;;;;;;;;4970442;28;20054;-72
2022/06/11 07:28:59;;;;;;;26.17;4.72;;;;;;;;;;4969115;28;20137;-72
2022/06/11 07:31:27;;;;;;;20.08;4.85;;;;;;;;;;4968295;28;20100;-72
2022/06/11 07:33:54;;;;;;;25.95;4.40;;;;;;;;;;4970510;28;20093;-72
2022/06/11 07:36:21;;;;;;;22.70;4.60;;;;;;;;;;4964666;28;20517;-72
2022/06/11 07:38:48;;;;;;;19.58;4.43;;;;;;;;;;4977745;28;20104;-73
2022/06/11 07:41:17;;;;;;;24.90;4.28;;;;;;;;;;4966062;28;20054;-72
2022/06/11 07:43:44;;;;;;;21.05;4.03;;;;;;;;;;4965119;28;20058;-72
2022/06/11 07:46:12;;;;;;;20.60;4.10;;;;;;;;;;4972088;28;20058;-72
2022/06/11 07:48:39;;;;;;;23.95;4.40;;;;;;;;;;4982994;28;20062;-73
2022/06/11 07:51:06;;;;;;;22.52;4.70;;;;;;;;;;4975678;28;20050;-72
2022/06/11 07:53:33;;;;;;;22.58;4.60;;;;;;;;;;4972669;28;20077;-72
2022/06/11 07:56:00;;;;;;;18.83;4.28;;;;;;;;;;4971837;28;20058;-72
2022/06/11 07:58:30;;;;;;;23.92;4.18;;;;;;;;;;4973238;28;20046;-72
2022/06/11 08:00:58;;;;;;;19.52;4.22;;;;;;;;;;4972964;28;20046;-72
2022/06/11 08:03:27;;;;;;;18.73;4.28;;;;;;;;;;4973495;28;20058;-72
2022/06/11 08:05:55;;;;;;;19.30;4.03;;;;;;;;;;4970443;28;20069;-72
2022/06/11 08:08:24;;;;;;;20.83;3.95;;;;;;;;;;4971634;28;20387;-73
2022/06/11 08:10:51;;;;;;;21.48;3.97;;;;;;;;;;4979545;28;20142;-72
2022/06/11 08:13:18;;;;;;;22.90;4.25;;;;;;;;;;4974735;28;20056;-72
2022/06/11 08:15:48;;;;;;;15.98;3.58;;;;;;;;;;4970368;28;20129;-72
2022/06/11 08:18:15;;;;;;;18.33;3.47;;;;;;;;;;4961684;28;20061;-73
2022/06/11 08:20:42;;;;;;;23.40;4.68;;;;;;;;;;4956421;28;20089;-73
2022/06/11 08:23:10;;;;;;;21.77;4.85;;;;;;;;;;4954307;28;20050;-73
2022/06/11 08:25:37;;;;;;;19.48;4.03;;;;;;;;;;4958055;28;20059;-72
2022/06/11 08:28:05;;;;;;;19.17;3.75;;;;;;;;;;4953159;28;20122;-72
2022/06/11 08:30:33;;;;;;;24.65;5.18;;;;;;;;;;4970092;28;20149;-72
2022/06/11 08:33:02;;;;;;;21.73;4.07;;;;;;;;;;4953632;28;20122;-72
2022/06/11 08:35:30;;;;;;;23.88;4.30;;;;;;;;;;4953372;28;20067;-72
2022/06/11 08:37:58;;;;;;;19.40;4.22;;;;;;;;;;4946054;28;21251;-72
2022/06/11 08:40:28;;;;;;;23.52;4.45;;;;;;;;;;4971386;28;20051;-72
2022/06/11 08:42:59;;;;;;;20.10;3.60;;;;;;;;;;4950817;28;20391;-72
2022/06/11 08:45:29;;;;;;;18.95;4.13;;;;;;;;;;4956239;28;20046;-73
2022/06/11 08:47:58;;;;;;;22.20;4.07;;;;;;;;;;4954884;28;20058;-72
2022/06/11 08:50:31;;;;;;;17.85;3.53;;;;;;;;;;4951541;28;20112;-72
2022/06/11 08:52:58;;;;;;;21.40;4.18;;;;;;;;;;4954507;28;20494;-72
2022/06/11 08:55:26;;;;;;;21.00;3.70;;;;;;;;;;4955421;28;20057;-72
2022/06/11 08:57:59;;;;;;;18.77;4.00;;;;;;;;;;4952311;28;20051;-72
2022/06/11 09:00:30;;;;;;;19.75;3.58;;;;;;;;;;4948249;28;20055;-72
2022/06/11 09:03:02;;;;;;;18.58;3.88;;;;;;;;;;4954657;28;20172;-72
2022/06/11 09:05:43;;;;;;;27.77;4.00;;;;;;;;;;4953301;28;20105;-72
2022/06/11 09:08:28;;;;;;;18.83;3.63;;;;;;;;;;4954988;28;20775;-72
2022/06/11 09:11:06;;;;;;;15.48;3.40;;;;;;;;;;4954583;28;20054;-72
2022/06/11 09:13:46;;;;;;;16.02;3.50;;;;;;;;;;4955857;28;20521;-72
2022/06/11 09:16:20;;;;;;;17.48;3.90;;;;;;;;;;4951935;28;20425;-72
2022/06/11 09:18:56;;;;;;;20.15;3.83;;;;;;;;;;4951915;28;20482;-72
2022/06/11 09:21:30;;;;;;;18.35;3.92;;;;;;;;;;4952370;28;20485;-72
2022/06/11 09:23:58;;;;;;;;;;;;;;;;;;4954175;28;20088;-72
2022/06/11 09:26:32;;;;;;;25.63;5.20;;;;;;;;;;4948437;28;19969;-72
2022/06/11 09:29:06;;;;;;;21.08;3.83;;;;;;;;;;4965582;28;20054;-72
2022/06/11 09:31:39;;;;;;;22.05;3.95;;;;;;;;;;4950667;28;20474;-72
2022/06/11 09:34:10;;;;;;;21.55;3.88;;;;;;;;;;4949911;28;20051;-73
2022/06/11 09:36:41;;;;;;;21.77;3.97;;;;;;;;;;4951764;28;20054;-73
2022/06/11 09:39:13;;;;;;;22.00;4.15;;;;;;;;;;4951979;28;20519;-72
2022/06/11 09:41:44;;;;;;;21.70;3.65;;;;;;;;;;4946291;28;20466;-73
2022/06/11 09:44:18;;;;;;;23.48;4.35;;;;;;;;;;4951548;28;20058;-72
2022/06/11 09:46:49;;;;;;;17.50;3.78;;;;;;;;;;4948004;28;20050;-72
2022/06/11 09:49:20;;;;;;;19.67;3.97;;;;;;;;;;4947758;28;20066;-73
2022/06/11 09:51:52;;;;;;;15.48;3.38;;;;;;;;;;4941524;28;20494;-73
2022/06/11 09:54:34;;;;;;;19.48;3.25;;;;;;;;;;4946470;28;20400;-73
2022/06/11 09:57:06;;;;;;;13.98;2.47;;;;;;;;;;4943205;28;20351;-73
2022/06/11 09:59:35;;;;;;;14.50;3.28;;;;;;;;;;4948192;28;20679;-73
2022/06/11 10:02:09;;;;;;;16.98;3.10;;;;;;;;;;4945569;28;20707;-72
2022/06/11 10:04:38;;;;;;;19.23;3.83;;;;;;;;;;4949809;28;20055;-73
2022/06/11 10:07:09;;;;;;;16.15;3.65;;;;;;;;;;4951629;28;20073;-72
2022/06/11 10:09:39;;;;;;;14.02;3.00;;;;;;;;;;4965726;28;20058;-72
2022/06/11 10:12:14;;;;;;;13.40;2.90;;;;;;;;;;4951789;28;20046;-73
2022/06/11 10:14:43;;;;;;;15.32;3.20;;;;;;;;;;4949495;28;20058;-72
2022/06/11 10:17:12;;;;;;;14.70;3.50;;;;;;;;;;4944336;28;20089;-72
2022/06/11 10:19:43;;;;;;;18.50;3.70;;;;;;;;;;4959635;28;20387;-73
2022/06/11 10:22:16;;;;;;;19.75;4.10;;;;;;;;;;4966919;28;20065;-72
2022/06/11 10:24:46;;;;;;;19.05;3.97;;;;;;;;;;4966099;28;20137;-73
2022/06/11 10:27:15;;;;;;;15.90;3.15;;;;;;;;;;4973771;28;20156;-73
2022/06/11 10:29:46;;;;;;;20.70;4.63;;;;;;;;;;4965033;28;20058;-73
2022/06/11 10:32:14;;;;;;;17.40;3.67;;;;;;;;;;4966082;28;20167;-72
2022/06/11 10:34:44;;;;;;;18.67;3.40;;;;;;;;;;4969801;28;20061;-72
2022/06/11 10:37:16;;;;;;;14.38;3.40;;;;;;;;;;4968576;28;20046;-73
2022/06/11 10:39:46;;;;;;;16.63;3.33;;;;;;;;;;4969405;28;20108;-72
2022/06/11 10:42:14;;;;;;;15.32;3.83;;;;;;;;;;4968714;28;20855;-73
2022/06/11 10:44:44;;;;;;;17.75;3.88;;;;;;;;;;4967620;28;20066;-73
2022/06/11 10:47:17;;;;;;;17.77;3.75;;;;;;;;;;4968516;28;20054;-73
2022/06/11 10:49:45;;;;;;;21.88;3.80;;;;;;;;;;4968615;28;20154;-73
2022/06/11 10:52:18;;;;;;;14.32;3.17;;;;;;;;;;4966866;28;20058;-73
2022/06/11 10:54:45;;;;;;;18.40;3.50;;;;;;;;;;4962501;28;20113;-73
2022/06/11 10:57:19;;;;;;;14.20;3.35;;;;;;;;;;4965739;28;20101;-73
2022/06/11 10:59:50;;;;;;;15.15;3.80;;;;;;;;;;4969975;28;20046;-73
2022/06/11 11:02:21;;;;;;;16.05;3.42;;;;;;;;;;4967413;28;20153;-73
2022/06/11 11:04:56;;;;;;;16.92;3.40;;;;;;;;;;4966554;28;20071;-73
2022/06/11 11:07:25;;;;;;;15.00;3.22;;;;;;;;;;4961783;28;20120;-73
2022/06/11 11:09:58;;;;;;;15.32;3.15;;;;;;;;;;4969535;28;20053;-73
2022/06/11 11:12:26;;;;;;;11.45;3.03;;;;;;;;;;4967500;28;20461;-73
2022/06/11 11:14:59;;;;;;;13.30;2.75;;;;;;;;;;4967960;28;20050;-73
2022/06/11 11:17:27;;;;;;;17.58;3.67;;;;;;;;;;4967641;28;20109;-73
2022/06/11 11:22:53;;;;;;;17.80;3.78;;;;;;;;;;4945902;28;20054;-73
2022/06/11 11:25:24;;;;;;;12.40;3.42;;;;;;;;;;4970365;28;20058;-73
2022/06/11 11:27:52;;;;;;;17.67;3.45;;;;;;;;;;4969504;28;21379;-73
2022/06/11 11:30:27;;;;;;;22.30;4.00;;;;;;;;;;4972254;28;20418;-73
2022/06/11 11:32:54;;;;;;;17.05;3.15;;;;;;;;;;4968820;28;20444;-73
2022/06/11 11:35:24;;;;;;;13.20;3.80;;;;;;;;;;4972218;28;20050;-73
2022/06/11 11:37:59;;;;;;;22.75;3.60;;;;;;;;;;4970239;28;20050;-73
2022/06/11 11:40:28;;;;;;;13.75;3.03;;;;;;;;;;4971410;28;20050;-74
2022/06/11 11:42:57;;;;;;;13.55;3.70;;;;;;;;;;4971923;28;20054;-74
2022/06/11 11:45:25;;;;;;;19.20;4.10;;;;;;;;;;4970209;28;20061;-73
2022/06/11 11:47:54;;;;;;;16.63;3.72;;;;;;;;;;4973155;28;20117;-74
2022/06/11 11:50:23;;;;;;;17.67;4.15;;;;;;;;;;4970801;28;20047;-73
2022/06/11 11:52:53;;;;;;;16.38;3.50;;;;;;;;;;4973117;28;20097;-73
2022/06/11 11:55:26;;;;;;;11.95;3.58;;;;;;;;;;4968538;28;20391;-73
2022/06/11 11:57:56;;;;;;;20.60;3.70;;;;;;;;;;4966637;28;20058;-73
2022/06/11 12:00:29;;;;;;;21.85;3.92;;;;;;;;;;4971832;28;20133;-74
2022/06/11 12:02:57;;;;;;;13.48;3.30;;;;;;;;;;4972565;28;20050;-74
2022/06/11 12:05:27;;;;;;;14.20;3.58;;;;;;;;;;4970203;28;20061;-74
2022/06/11 12:07:55;;;;;;;15.48;4.25;;;;;;;;;;4975597;28;20054;-73
2022/06/11 12:10:36;;;;;;;11.55;3.22;;;;;;;;;;4972171;28;20109;-73
2022/06/11 12:13:05;;;;;;;15.15;3.95;;;;;;;;;;4972082;28;20042;-73
2022/06/11 12:15:34;;;;;;;12.02;3.65;;;;;;;;;;4971821;28;20054;-73
2022/06/11 12:18:03;;;;;;;15.32;4.35;;;;;;;;;;4969245;28;20057;-73
2022/06/11 12:20:33;;;;;;;14.90;3.50;;;;;;;;;;4970741;28;20497;-73
2022/06/11 12:23:04;;;;;;;17.20;4.53;;;;;;;;;;4969667;28;20050;-73
2022/06/11 12:25:37;;;;;;;13.15;3.58;;;;;;;;;;4972007;28;20062;-73
2022/06/11 12:28:04;;;;;;;15.85;3.92;;;;;;;;;;4971173;28;20504;-73
2022/06/11 12:30:31;;;;;;;16.40;4.18;;;;;;;;;;4969946;28;20448;-73
2022/06/11 12:33:00;;;;;;;18.63;4.07;;;;;;;;;;4970346;28;21042;-73
2022/06/11 12:35:29;;;;;;;15.43;3.65;;;;;;;;;;4970051;28;20053;-73
2022/06/11 12:38:01;;;;;;;15.90;3.35;;;;;;;;;;4973216;28;20058;-74
2022/06/11 12:40:31;;;;;;;14.80;3.33;;;;;;;;;;4969558;28;20050;-74
2022/06/11 12:43:07;;;;;;;13.07;3.42;;;;;;;;;;4969684;28;20370;-73
2022/06/11 12:45:37;;;;;;;14.05;3.60;;;;;;;;;;4970653;28;20186;-74
2022/06/11 12:48:18;;;;;;;14.93;3.30;;;;;;;;;;4966486;28;20516;-74
2022/06/11 12:50:49;;;;;;;13.55;3.35;;;;;;;;;;4970320;28;20058;-73
2022/06/11 12:53:22;;;;;;;12.23;3.10;;;;;;;;;;4989020;28;20078;-74
2022/06/11 12:55:55;;;;;;;12.90;3.58;;;;;;;;;;4969182;28;20058;-73
2022/06/11 12:58:32;;;;;;;16.08;3.63;;;;;;;;;;4971457;28;20050;-74
2022/06/11 13:01:01;;;;;;;12.43;3.42;;;;;;;;;;4969465;28;20054;-74
2022/06/11 13:03:46;;;;;;;17.02;3.30;;;;;;;;;;4970738;28;20054;-74
2022/06/11 13:06:25;;;;;;;12.57;3.20;;;;;;;;;;4970873;28;20097;-74
2022/06/11 13:09:03;;;;;;;14.95;3.58;;;;;;;;;;4972013;28;20058;-74
2022/06/11 13:11:37;;;;;;;12.98;3.15;;;;;;;;;;4971023;28;20704;-74
2022/06/11 13:14:24;;;;;;;10.30;3.42;;;;;;;;;;4969035;28;20054;-74
2022/06/11 13:16:56;;;;;;;11.20;3.28;;;;;;;;;;4971116;28;20129;-74
2022/06/11 13:19:30;;;;;;;12.63;3.67;;;;;;;;;;4966393;28;20718;-74
2022/06/11 13:22:01;;;;;;;15.02;3.78;;;;;;;;;;4972397;28;20047;-74
2022/06/11 13:24:32;;;;;;;15.32;3.95;;;;;;;;;;4967357;28;20149;-74
2022/06/11 13:27:03;;;;;;;14.65;3.45;;;;;;;;;;4966335;28;20070;-74
2022/06/11 13:29:37;;;;;;;14.48;4.25;;;;;;;;;;4973381;28;20061;-74
2022/06/11 13:32:10;;;;;;;20.70;4.40;;;;;;;;;;4970719;28;20053;-74
2022/06/11 13:34:41;;;;;;;14.80;3.58;;;;;;;;;;4972182;28;20057;-74
2022/06/11 13:37:17;;;;;;;14.35;3.67;;;;;;;;;;4970120;28;20061;-74
2022/06/11 13:39:52;;;;;;;13.82;3.78;;;;;;;;;;4979772;28;20061;-74
2022/06/11 13:42:25;;;;;;;13.95;3.67;;;;;;;;;;4970536;28;20432;-74
2022/06/11 13:45:11;;;;;;;14.57;4.18;;;;;;;;;;4964338;28;20062;-74
2022/06/11 13:47:44;;;;;;;18.67;4.10;;;;;;;;;;4965916;28;20054;-72
2022/06/11 13:50:22;;;;;;;13.48;4.20;;;;;;;;;;4968300;28;20061;-72
2022/06/11 13:55:43;;;;;;;15.25;4.20;;;;;;;;;;4965271;28;20098;-72
2022/06/11 13:58:19;;;;;;;15.35;4.25;;;;;;;;;;4967875;28;20054;-72
2022/06/11 14:00:53;;;;;;;15.82;4.30;;;;;;;;;;4983503;28;20065;-72
2022/06/11 14:03:40;;;;;;;18.83;4.50;;;;;;;;;;4968494;28;20650;-72
2022/06/11 14:06:10;;;;;;;12.00;3.92;;;;;;;;;;4965988;28;20050;-72
2022/06/11 14:08:41;;;;;;;16.48;4.68;;;;;;;;;;4969308;28;20112;-72
2022/06/11 14:11:17;;;;;;;19.02;4.82;;;;;;;;;;4969055;28;20054;-72
2022/06/11 14:13:52;;;;;;;16.92;4.63;;;;;;;;;;4970048;28;20050;-72
2022/06/11 14:16:40;;;;;;;16.40;4.60;;;;;;;;;;4965096;28;20405;-72
2022/06/11 14:19:22;;;;;;;16.80;4.50;;;;;;;;;;4969154;28;20066;-72
2022/06/11 14:21:51;;;;;;;17.17;4.85;;;;;;;;;;4966926;28;20054;-74
2022/06/11 14:24:37;;;;;;;16.65;4.95;;;;;;;;;;4969007;28;20057;-73
2022/06/11 14:27:24;;;;;;;13.65;4.50;;;;;;;;;;4969675;28;20053;-72
2022/06/11 14:30:05;;;;;;;17.77;5.50;;;;;;;;;;4967809;28;20047;-72
2022/06/11 14:32:33;;;;;;;18.55;5.30;;;;;;;;;;4969869;28;20409;-72
2022/06/11 14:35:02;;;;;;;16.73;5.22;;;;;;;;;;4968087;28;20490;-72
2022/06/11 14:37:31;;;;;;;16.83;4.85;;;;;;;;;;4969742;28;20133;-72
2022/06/11 14:40:08;;;;;;;17.25;4.78;;;;;;;;;;4962305;28;20057;-72
2022/06/11 14:42:56;;;;;;;18.23;5.50;;;;;;;;;;4967514;28;20058;-72
2022/06/11 14:45:42;;;;;;;17.27;5.22;;;;;;;;;;4970213;28;20046;-72
2022/06/11 14:48:12;;;;;;;20.35;5.70;;;;;;;;;;4966596;28;20141;-72
2022/06/11 14:50:41;;;;;;;15.07;5.07;;;;;;;;;;4968574;28;20054;-72
2022/06/11 14:53:13;;;;;;;17.13;5.35;;;;;;;;;;4969064;28;20042;-72
2022/06/11 14:55:43;;;;;;;21.77;5.75;;;;;;;;;;4968394;28;20058;-72